Terminal Aerodrome Forecast
Issued by NWS

Home | Current Version | Previous Version | Text Only | Print | Product List | Glossary On
Versions: 1 2 3 4 5 6 7 8 9 10 11 12 13 14 15 16 17 18 19 20 21 22 23 24
000
FTUS43 KDTX 271120
TAFYIP
TAF
KYIP 271120Z 2712/2812 13005KT P6SM SCT080 BKN100 OVC200
     FM271800 18007KT P6SM SCT050 BKN080
     FM272000 18007KT 6SM SHRA VCTS OVC040CB
     FM280100 14005KT P6SM SCT080 OVC120
     FM280800 VRB03KT 5SM BR SCT015=

USA.gov is the U.S. government's official web portal to all federal, state and local government web resources and services.